sensor_id;sensor_type;location;lat;lon;timestamp;temperature;humidity
67249;SHT31;63247;54.300;18.592;2023-02-28T00:00:24;-4.32;99.75
67249;SHT31;63247;54.300;18.592;2023-02-28T00:02:49;-4.31;99.59
67249;SHT31;63247;54.300;18.592;2023-02-28T00:05:17;-3.94;99.31
67249;SHT31;63247;54.300;18.592;2023-02-28T00:07:43;-4.06;98.74
67249;SHT31;63247;54.300;18.592;2023-02-28T00:10:16;-4.21;98.92
67249;SHT31;63247;54.300;18.592;2023-02-28T00:12:46;-4.25;99.33
67249;SHT31;63247;54.300;18.592;2023-02-28T00:15:11;-4.17;99.19
67249;SHT31;63247;54.300;18.592;2023-02-28T00:17:37;-4.25;99.10
67249;SHT31;63247;54.300;18.592;2023-02-28T00:20:04;-4.32;99.08
67249;SHT31;63247;54.300;18.592;2023-02-28T00:22:34;-4.42;99.41
67249;SHT31;63247;54.300;18.592;2023-02-28T00:24:59;-4.25;99.51
67249;SHT31;63247;54.300;18.592;2023-02-28T00:27:25;-4.27;99.36
67249;SHT31;63247;54.300;18.592;2023-02-28T00:29:50;-4.34;99.31
67249;SHT31;63247;54.300;18.592;2023-02-28T00:32:15;-4.45;99.35
67249;SHT31;63247;54.300;18.592;2023-02-28T00:34:41;-4.58;99.47
67249;SHT31;63247;54.300;18.592;2023-02-28T00:37:08;-4.76;99.65
67249;SHT31;63247;54.300;18.592;2023-02-28T00:39:35;-4.61;99.52
67249;SHT31;63247;54.300;18.592;2023-02-28T00:42:02;-4.68;99.72
67249;SHT31;63247;54.300;18.592;2023-02-28T00:44:28;-4.45;99.44
67249;SHT31;63247;54.300;18.592;2023-02-28T00:46:53;-4.51;99.51
67249;SHT31;63247;54.300;18.592;2023-02-28T00:49:20;-4.71;99.69
67249;SHT31;63247;54.300;18.592;2023-02-28T00:51:45;-4.71;99.75
67249;SHT31;63247;54.300;18.592;2023-02-28T00:54:11;-4.75;99.92
67249;SHT31;63247;54.300;18.592;2023-02-28T00:56:36;-4.68;99.72
67249;SHT31;63247;54.300;18.592;2023-02-28T00:59:01;-4.65;99.56
67249;SHT31;63247;54.300;18.592;2023-02-28T01:01:27;-4.73;99.68
67249;SHT31;63247;54.300;18.592;2023-02-28T01:03:52;-4.61;99.40
67249;SHT31;63247;54.300;18.592;2023-02-28T01:06:18;-4.58;99.38
67249;SHT31;63247;54.300;18.592;2023-02-28T01:08:43;-4.58;99.68
67249;SHT31;63247;54.300;18.592;2023-02-28T01:11:10;-4.49;99.92
67249;SHT31;63247;54.300;18.592;2023-02-28T01:13:36;-4.61;99.99
67249;SHT31;63247;54.300;18.592;2023-02-28T01:16:01;-4.52;99.91
67249;SHT31;63247;54.300;18.592;2023-02-28T01:18:27;-4.62;99.98
67249;SHT31;63247;54.300;18.592;2023-02-28T01:20:53;-4.58;99.99
67249;SHT31;63247;54.300;18.592;2023-02-28T01:23:19;-4.61;99.99
67249;SHT31;63247;54.300;18.592;2023-02-28T01:25:45;-4.56;99.99
67249;SHT31;63247;54.300;18.592;2023-02-28T01:28:10;-4.72;99.86
67249;SHT31;63247;54.300;18.592;2023-02-28T01:30:36;-4.69;99.76
67249;SHT31;63247;54.300;18.592;2023-02-28T01:33:01;-4.66;99.45
67249;SHT31;63247;54.300;18.592;2023-02-28T01:35:26;-4.76;99.44
67249;SHT31;63247;54.300;18.592;2023-02-28T01:37:52;-4.75;99.99
67249;SHT31;63247;54.300;18.592;2023-02-28T01:40:17;-4.73;99.99
67249;SHT31;63247;54.300;18.592;2023-02-28T01:42:43;-4.82;99.99
67249;SHT31;63247;54.300;18.592;2023-02-28T01:45:27;-4.83;99.99
67249;SHT31;63247;54.300;18.592;2023-02-28T01:48:12;-4.69;99.99
67249;SHT31;63247;54.300;18.592;2023-02-28T01:50:40;-4.62;99.99
67249;SHT31;63247;54.300;18.592;2023-02-28T01:53:11;-4.55;99.99
67249;SHT31;63247;54.300;18.592;2023-02-28T01:55:38;-4.55;99.92
67249;SHT31;63247;54.300;18.592;2023-02-28T01:58:06;-4.62;99.99
67249;SHT31;63247;54.300;18.592;2023-02-28T02:00:32;-4.64;99.99
67249;SHT31;63247;54.300;18.592;2023-02-28T02:03:06;-4.55;99.89
67249;SHT31;63247;54.300;18.592;2023-02-28T02:05:36;-4.58;99.19
67249;SHT31;63247;54.300;18.592;2023-02-28T02:08:04;-4.42;99.17
67249;SHT31;63247;54.300;18.592;2023-02-28T02:10:33;-4.48;99.17
67249;SHT31;63247;54.300;18.592;2023-02-28T02:13:24;-4.44;99.40
67249;SHT31;63247;54.300;18.592;2023-02-28T02:16:09;-4.37;98.96
67249;SHT31;63247;54.300;18.592;2023-02-28T02:18:54;-4.34;99.44
67249;SHT31;63247;54.300;18.592;2023-02-28T02:25:10;-4.11;98.80
67249;SHT31;63247;54.300;18.592;2023-02-28T02:28:04;-4.28;98.76
67249;SHT31;63247;54.300;18.592;2023-02-28T02:44:02;-4.18;98.95
67249;SHT31;63247;54.300;18.592;2023-02-28T02:46:35;-4.28;98.89
67249;SHT31;63247;54.300;18.592;2023-02-28T02:49:06;-4.22;98.81
67249;SHT31;63247;54.300;18.592;2023-02-28T02:51:34;-4.19;99.09
67249;SHT31;63247;54.300;18.592;2023-02-28T02:54:06;-4.03;98.69
67249;SHT31;63247;54.300;18.592;2023-02-28T02:56:34;-4.21;98.78
67249;SHT31;63247;54.300;18.592;2023-02-28T02:59:07;-4.17;98.92
67249;SHT31;63247;54.300;18.592;2023-02-28T03:01:34;-4.35;98.82
67249;SHT31;63247;54.300;18.592;2023-02-28T03:04:04;-4.59;99.08
67249;SHT31;63247;54.300;18.592;2023-02-28T03:06:30;-4.75;99.27
67249;SHT31;63247;54.300;18.592;2023-02-28T03:08:56;-4.83;99.27
67249;SHT31;63247;54.300;18.592;2023-02-28T03:11:21;-4.93;99.41
67249;SHT31;63247;54.300;18.592;2023-02-28T03:25:23;-4.96;99.37
67249;SHT31;63247;54.300;18.592;2023-02-28T03:30:35;-5.00;99.79
67249;SHT31;63247;54.300;18.592;2023-02-28T03:35:35;-4.83;99.36
67249;SHT31;63247;54.300;18.592;2023-02-28T03:38:31;-4.79;99.47
67249;SHT31;63247;54.300;18.592;2023-02-28T03:41:16;-4.93;99.55
67249;SHT31;63247;54.300;18.592;2023-02-28T03:43:53;-5.01;99.80
67249;SHT31;63247;54.300;18.592;2023-02-28T03:46:22;-5.14;99.84
67249;SHT31;63247;54.300;18.592;2023-02-28T03:48:57;-5.15;99.76
67249;SHT31;63247;54.300;18.592;2023-02-28T03:51:28;-5.10;99.99
67249;SHT31;63247;54.300;18.592;2023-02-28T03:53:58;-5.13;99.94
67249;SHT31;63247;54.300;18.592;2023-02-28T03:56:33;-4.93;99.71
67249;SHT31;63247;54.300;18.592;2023-02-28T03:59:20;-4.99;99.44
67249;SHT31;63247;54.300;18.592;2023-02-28T04:01:48;-4.97;99.63
67249;SHT31;63247;54.300;18.592;2023-02-28T04:04:15;-4.89;99.50
67249;SHT31;63247;54.300;18.592;2023-02-28T04:06:41;-5.01;99.34
67249;SHT31;63247;54.300;18.592;2023-02-28T04:09:09;-4.99;99.72
67249;SHT31;63247;54.300;18.592;2023-02-28T04:11:44;-4.99;99.73
67249;SHT31;63247;54.300;18.592;2023-02-28T04:14:11;-4.89;99.44
67249;SHT31;63247;54.300;18.592;2023-02-28T04:16:39;-4.92;99.06
67249;SHT31;63247;54.300;18.592;2023-02-28T04:19:07;-4.97;99.38
67249;SHT31;63247;54.300;18.592;2023-02-28T04:21:35;-4.97;99.51
67249;SHT31;63247;54.300;18.592;2023-02-28T04:24:01;-4.86;99.31
67249;SHT31;63247;54.300;18.592;2023-02-28T04:26:35;-4.99;99.47
67249;SHT31;63247;54.300;18.592;2023-02-28T04:29:01;-4.97;99.55
67249;SHT31;63247;54.300;18.592;2023-02-28T04:31:27;-5.03;99.60
67249;SHT31;63247;54.300;18.592;2023-02-28T04:33:52;-4.94;99.74
67249;SHT31;63247;54.300;18.592;2023-02-28T04:36:18;-5.08;99.80
67249;SHT31;63247;54.300;18.592;2023-02-28T04:38:44;-4.99;99.78
67249;SHT31;63247;54.300;18.592;2023-02-28T04:41:11;-5.00;99.68
67249;SHT31;63247;54.300;18.592;2023-02-28T04:43:36;-4.89;99.56
67249;SHT31;63247;54.300;18.592;2023-02-28T04:46:04;-4.86;99.32
67249;SHT31;63247;54.300;18.592;2023-02-28T04:48:32;-4.92;99.53
67249;SHT31;63247;54.300;18.592;2023-02-28T04:51:06;-4.97;99.62
67249;SHT31;63247;54.300;18.592;2023-02-28T04:53:32;-5.00;99.83
67249;SHT31;63247;54.300;18.592;2023-02-28T04:55:58;-4.90;99.61
67249;SHT31;63247;54.300;18.592;2023-02-28T04:58:25;-4.86;99.08
67249;SHT31;63247;54.300;18.592;2023-02-28T05:00:51;-4.93;99.06
67249;SHT31;63247;54.300;18.592;2023-02-28T05:03:16;-4.87;98.91
67249;SHT31;63247;54.300;18.592;2023-02-28T05:05:42;-4.87;98.88
67249;SHT31;63247;54.300;18.592;2023-02-28T05:08:07;-4.89;99.18
67249;SHT31;63247;54.300;18.592;2023-02-28T05:10:33;-4.96;99.11
67249;SHT31;63247;54.300;18.592;2023-02-28T05:12:58;-4.96;99.50
67249;SHT31;63247;54.300;18.592;2023-02-28T05:15:24;-5.01;99.57
67249;SHT31;63247;54.300;18.592;2023-02-28T05:17:50;-5.06;99.37
67249;SHT31;63247;54.300;18.592;2023-02-28T05:20:15;-5.01;99.09
67249;SHT31;63247;54.300;18.592;2023-02-28T05:22:41;-4.97;99.47
67249;SHT31;63247;54.300;18.592;2023-02-28T05:25:08;-4.92;99.18
67249;SHT31;63247;54.300;18.592;2023-02-28T05:27:33;-5.00;99.20
67249;SHT31;63247;54.300;18.592;2023-02-28T05:29:59;-4.90;99.08
67249;SHT31;63247;54.300;18.592;2023-02-28T05:32:24;-4.83;98.50
67249;SHT31;63247;54.300;18.592;2023-02-28T05:34:50;-4.92;98.76
67249;SHT31;63247;54.300;18.592;2023-02-28T05:37:15;-4.80;98.90
67249;SHT31;63247;54.300;18.592;2023-02-28T05:39:42;-4.69;98.11
67249;SHT31;63247;54.300;18.592;2023-02-28T05:42:07;-4.25;97.25
67249;SHT31;63247;54.300;18.592;2023-02-28T05:44:35;-3.91;96.12
67249;SHT31;63247;54.300;18.592;2023-02-28T05:47:00;-3.58;94.74
67249;SHT31;63247;54.300;18.592;2023-02-28T05:49:25;-3.30;93.34
67249;SHT31;63247;54.300;18.592;2023-02-28T05:51:51;-2.79;92.57
67249;SHT31;63247;54.300;18.592;2023-02-28T05:54:16;-2.44;92.04
67249;SHT31;63247;54.300;18.592;2023-02-28T05:56:41;-2.01;90.56
67249;SHT31;63247;54.300;18.592;2023-02-28T05:59:11;-1.52;90.36
67249;SHT31;63247;54.300;18.592;2023-02-28T06:01:39;-1.34;90.14
67249;SHT31;63247;54.300;18.592;2023-02-28T06:04:07;-1.09;88.04
67249;SHT31;63247;54.300;18.592;2023-02-28T06:06:33;-0.67;89.10
67249;SHT31;63247;54.300;18.592;2023-02-28T06:09:04;-0.18;87.19
67249;SHT31;63247;54.300;18.592;2023-02-28T06:11:30;0.17;87.94
67249;SHT31;63247;54.300;18.592;2023-02-28T06:13:57;0.50;89.95
67249;SHT31;63247;54.300;18.592;2023-02-28T06:16:25;0.72;89.27
67249;SHT31;63247;54.300;18.592;2023-02-28T06:18:50;1.19;88.82
67249;SHT31;63247;54.300;18.592;2023-02-28T06:21:17;1.36;88.42
67249;SHT31;63247;54.300;18.592;2023-02-28T06:23:43;1.67;89.71
67249;SHT31;63247;54.300;18.592;2023-02-28T06:26:09;2.08;90.22
67249;SHT31;63247;54.300;18.592;2023-02-28T06:28:36;2.93;83.29
67249;SHT31;63247;54.300;18.592;2023-02-28T06:31:12;3.69;84.62
67249;SHT31;63247;54.300;18.592;2023-02-28T06:33:39;4.18;79.30
67249;SHT31;63247;54.300;18.592;2023-02-28T06:36:05;4.27;78.55
67249;SHT31;63247;54.300;18.592;2023-02-28T06:38:31;4.87;76.51
67249;SHT31;63247;54.300;18.592;2023-02-28T06:40:57;4.97;73.72
67249;SHT31;63247;54.300;18.592;2023-02-28T06:43:25;4.81;72.30
67249;SHT31;63247;54.300;18.592;2023-02-28T06:45:53;5.27;70.24
67249;SHT31;63247;54.300;18.592;2023-02-28T06:48:19;5.86;65.22
67249;SHT31;63247;54.300;18.592;2023-02-28T06:50:44;6.07;65.02
67249;SHT31;63247;54.300;18.592;2023-02-28T06:53:09;6.37;64.50
67249;SHT31;63247;54.300;18.592;2023-02-28T06:55:37;5.82;65.87
67249;SHT31;63247;54.300;18.592;2023-02-28T06:58:03;6.65;63.47
67249;SHT31;63247;54.300;18.592;2023-02-28T07:00:43;6.68;63.33
67249;SHT31;63247;54.300;18.592;2023-02-28T07:03:10;6.78;62.50
67249;SHT31;63247;54.300;18.592;2023-02-28T07:05:36;7.52;63.10
67249;SHT31;63247;54.300;18.592;2023-02-28T07:08:03;6.69;62.55
67249;SHT31;63247;54.300;18.592;2023-02-28T07:10:30;7.44;63.13
67249;SHT31;63247;54.300;18.592;2023-02-28T07:12:55;7.74;60.22
67249;SHT31;63247;54.300;18.592;2023-02-28T07:15:21;7.85;61.58
67249;SHT31;63247;54.300;18.592;2023-02-28T07:17:46;8.27;62.58
67249;SHT31;63247;54.300;18.592;2023-02-28T07:20:12;8.50;64.22
67249;SHT31;63247;54.300;18.592;2023-02-28T07:22:37;8.95;60.09
67249;SHT31;63247;54.300;18.592;2023-02-28T07:25:04;9.40;60.14
67249;SHT31;63247;54.300;18.592;2023-02-28T07:27:29;9.27;62.15
67249;SHT31;63247;54.300;18.592;2023-02-28T07:29:55;9.22;61.00
67249;SHT31;63247;54.300;18.592;2023-02-28T07:32:20;9.53;57.99
67249;SHT31;63247;54.300;18.592;2023-02-28T07:34:45;9.50;57.76
67249;SHT31;63247;54.300;18.592;2023-02-28T07:37:11;10.02;56.52
67249;SHT31;63247;54.300;18.592;2023-02-28T07:39:36;8.84;57.97
67249;SHT31;63247;54.300;18.592;2023-02-28T07:42:05;9.06;57.72
67249;SHT31;63247;54.300;18.592;2023-02-28T07:44:31;9.65;57.47
67249;SHT31;63247;54.300;18.592;2023-02-28T07:46:57;8.84;58.81
67249;SHT31;63247;54.300;18.592;2023-02-28T07:49:23;9.05;58.73
67249;SHT31;63247;54.300;18.592;2023-02-28T07:51:48;9.70;56.73
67249;SHT31;63247;54.300;18.592;2023-02-28T07:54:14;10.02;55.79
67249;SHT31;63247;54.300;18.592;2023-02-28T07:56:39;8.81;57.91
67249;SHT31;63247;54.300;18.592;2023-02-28T07:59:04;8.96;57.88
67249;SHT31;63247;54.300;18.592;2023-02-28T08:01:30;8.78;58.37
67249;SHT31;63247;54.300;18.592;2023-02-28T08:03:55;9.56;57.35
67249;SHT31;63247;54.300;18.592;2023-02-28T08:06:24;10.79;56.37
67249;SHT31;63247;54.300;18.592;2023-02-28T08:08:50;11.24;54.88
67249;SHT31;63247;54.300;18.592;2023-02-28T08:11:17;10.90;54.68
67249;SHT31;63247;54.300;18.592;2023-02-28T08:13:43;11.11;54.46
67249;SHT31;63247;54.300;18.592;2023-02-28T08:16:10;11.36;53.78
67249;SHT31;63247;54.300;18.592;2023-02-28T08:18:36;10.73;54.52
67249;SHT31;63247;54.300;18.592;2023-02-28T08:21:08;11.22;54.10
67249;SHT31;63247;54.300;18.592;2023-02-28T08:23:34;11.98;52.58
67249;SHT31;63247;54.300;18.592;2023-02-28T08:26:00;11.49;52.47
67249;SHT31;63247;54.300;18.592;2023-02-28T08:28:25;12.16;51.70
67249;SHT31;63247;54.300;18.592;2023-02-28T08:30:51;9.95;55.34
67249;SHT31;63247;54.300;18.592;2023-02-28T08:33:18;11.89;53.62
67249;SHT31;63247;54.300;18.592;2023-02-28T08:35:44;11.54;52.73
67249;SHT31;63247;54.300;18.592;2023-02-28T08:38:09;11.59;53.28
67249;SHT31;63247;54.300;18.592;2023-02-28T08:40:34;11.69;53.09
67249;SHT31;63247;54.300;18.592;2023-02-28T08:43:00;13.12;50.81
67249;SHT31;63247;54.300;18.592;2023-02-28T08:45:25;13.04;50.79
67249;SHT31;63247;54.300;18.592;2023-02-28T08:47:51;11.86;52.44
67249;SHT31;63247;54.300;18.592;2023-02-28T08:50:17;12.96;50.82
67249;SHT31;63247;54.300;18.592;2023-02-28T08:52:43;13.20;50.08
67249;SHT31;63247;54.300;18.592;2023-02-28T08:55:09;12.93;50.70
67249;SHT31;63247;54.300;18.592;2023-02-28T08:57:35;14.16;49.33
67249;SHT31;63247;54.300;18.592;2023-02-28T09:00:00;13.72;49.13
67249;SHT31;63247;54.300;18.592;2023-02-28T09:02:30;13.90;48.17
67249;SHT31;63247;54.300;18.592;2023-02-28T09:04:55;13.96;46.75
67249;SHT31;63247;54.300;18.592;2023-02-28T09:07:20;13.60;48.93
67249;SHT31;63247;54.300;18.592;2023-02-28T09:09:46;13.67;49.30
67249;SHT31;63247;54.300;18.592;2023-02-28T09:12:24;14.27;45.62
67249;SHT31;63247;54.300;18.592;2023-02-28T09:14:50;13.71;48.48
67249;SHT31;63247;54.300;18.592;2023-02-28T09:17:17;13.19;50.10
67249;SHT31;63247;54.300;18.592;2023-02-28T09:19:42;13.85;48.35
67249;SHT31;63247;54.300;18.592;2023-02-28T09:22:09;12.76;49.81
67249;SHT31;63247;54.300;18.592;2023-02-28T09:24:36;14.81;46.89
67249;SHT31;63247;54.300;18.592;2023-02-28T09:27:01;14.81;46.19
67249;SHT31;63247;54.300;18.592;2023-02-28T09:29:26;15.35;45.03
67249;SHT31;63247;54.300;18.592;2023-02-28T09:31:52;15.36;45.07
67249;SHT31;63247;54.300;18.592;2023-02-28T09:34:17;15.56;43.86
67249;SHT31;63247;54.300;18.592;2023-02-28T09:36:43;15.26;44.75
67249;SHT31;63247;54.300;18.592;2023-02-28T09:39:08;16.05;42.59
67249;SHT31;63247;54.300;18.592;2023-02-28T09:41:40;13.98;46.56
67249;SHT31;63247;54.300;18.592;2023-02-28T09:44:26;13.04;48.44
67249;SHT31;63247;54.300;18.592;2023-02-28T09:46:58;14.19;46.44
67249;SHT31;63247;54.300;18.592;2023-02-28T09:49:31;14.78;45.29
67249;SHT31;63247;54.300;18.592;2023-02-28T09:52:05;13.81;46.27
67249;SHT31;63247;54.300;18.592;2023-02-28T09:54:35;13.34;48.25
67249;SHT31;63247;54.300;18.592;2023-02-28T09:57:08;12.51;50.59
67249;SHT31;63247;54.300;18.592;2023-02-28T10:05:25;14.02;45.96
67249;SHT31;63247;54.300;18.592;2023-02-28T10:08:03;14.30;45.61
67249;SHT31;63247;54.300;18.592;2023-02-28T10:10:44;14.06;47.22
67249;SHT31;63247;54.300;18.592;2023-02-28T10:15:53;12.44;51.17
67249;SHT31;63247;54.300;18.592;2023-02-28T10:18:24;13.83;46.60
67249;SHT31;63247;54.300;18.592;2023-02-28T10:20:50;11.94;49.77
67249;SHT31;63247;54.300;18.592;2023-02-28T10:23:25;14.22;47.29
67249;SHT31;63247;54.300;18.592;2023-02-28T10:26:15;12.73;48.42
67249;SHT31;63247;54.300;18.592;2023-02-28T10:28:41;12.76;49.29
67249;SHT31;63247;54.300;18.592;2023-02-28T10:31:20;13.69;47.48
67249;SHT31;63247;54.300;18.592;2023-02-28T10:33:45;14.05;47.34
67249;SHT31;63247;54.300;18.592;2023-02-28T10:36:15;13.78;46.32
67249;SHT31;63247;54.300;18.592;2023-02-28T10:38:43;13.16;46.69
67249;SHT31;63247;54.300;18.592;2023-02-28T10:43:34;12.75;47.95
67249;SHT31;63247;54.300;18.592;2023-02-28T10:51:02;13.75;45.80
67249;SHT31;63247;54.300;18.592;2023-02-28T10:53:51;13.13;46.45
67249;SHT31;63247;54.300;18.592;2023-02-28T10:56:21;12.46;47.38
67249;SHT31;63247;54.300;18.592;2023-02-28T11:01:42;9.87;52.62
67249;SHT31;63247;54.300;18.592;2023-02-28T11:06:57;9.36;55.99
67249;SHT31;63247;54.300;18.592;2023-02-28T11:09:28;9.46;53.13
67249;SHT31;63247;54.300;18.592;2023-02-28T11:11:56;9.36;53.96
67249;SHT31;63247;54.300;18.592;2023-02-28T11:14:25;8.75;54.21
67249;SHT31;63247;54.300;18.592;2023-02-28T11:16:52;8.67;55.03
67249;SHT31;63247;54.300;18.592;2023-02-28T11:19:23;8.27;54.05
67249;SHT31;63247;54.300;18.592;2023-02-28T11:21:57;8.48;54.49
67249;SHT31;63247;54.300;18.592;2023-02-28T11:26:48;8.26;55.00
67249;SHT31;63247;54.300;18.592;2023-02-28T11:29:24;7.79;56.29
67249;SHT31;63247;54.300;18.592;2023-02-28T11:32:16;7.91;56.67
67249;SHT31;63247;54.300;18.592;2023-02-28T11:34:43;7.72;57.11
67249;SHT31;63247;54.300;18.592;2023-02-28T11:37:15;8.25;57.24
67249;SHT31;63247;54.300;18.592;2023-02-28T11:39:42;8.03;57.49
67249;SHT31;63247;54.300;18.592;2023-02-28T11:45:08;7.47;59.10
67249;SHT31;63247;54.300;18.592;2023-02-28T11:55:14;6.99;58.36
67249;SHT31;63247;54.300;18.592;2023-02-28T12:03:26;6.95;57.87
67249;SHT31;63247;54.300;18.592;2023-02-28T12:06:15;7.06;58.29
67249;SHT31;63247;54.300;18.592;2023-02-28T12:11:40;6.99;57.74
67249;SHT31;63247;54.300;18.592;2023-02-28T12:14:49;7.31;57.10
67249;SHT31;63247;54.300;18.592;2023-02-28T12:17:55;7.57;56.90
67249;SHT31;63247;54.300;18.592;2023-02-28T12:20:42;7.26;58.44
67249;SHT31;63247;54.300;18.592;2023-02-28T12:25:58;7.04;58.60
67249;SHT31;63247;54.300;18.592;2023-02-28T12:28:30;7.16;58.78
67249;SHT31;63247;54.300;18.592;2023-02-28T12:31:17;6.93;58.93
67249;SHT31;63247;54.300;18.592;2023-02-28T12:33:48;7.04;59.54
67249;SHT31;63247;54.300;18.592;2023-02-28T12:36:18;6.96;59.37
67249;SHT31;63247;54.300;18.592;2023-02-28T12:41:43;6.93;58.61
67249;SHT31;63247;54.300;18.592;2023-02-28T12:44:32;6.73;58.80
67249;SHT31;63247;54.300;18.592;2023-02-28T12:47:04;6.62;59.48
67249;SHT31;63247;54.300;18.592;2023-02-28T12:51:57;6.46;59.77
67249;SHT31;63247;54.300;18.592;2023-02-28T12:54:36;6.46;59.85
67249;SHT31;63247;54.300;18.592;2023-02-28T12:57:36;6.61;61.18
67249;SHT31;63247;54.300;18.592;2023-02-28T13:00:14;6.37;60.53
67249;SHT31;63247;54.300;18.592;2023-02-28T13:05:46;6.09;61.82
67249;SHT31;63247;54.300;18.592;2023-02-28T13:11:00;6.13;61.81
67249;SHT31;63247;54.300;18.592;2023-02-28T13:13:28;6.20;61.37
67249;SHT31;63247;54.300;18.592;2023-02-28T13:16:05;6.30;61.55
67249;SHT31;63247;54.300;18.592;2023-02-28T13:18:37;6.34;61.27
67249;SHT31;63247;54.300;18.592;2023-02-28T13:21:06;6.44;61.02
67249;SHT31;63247;54.300;18.592;2023-02-28T13:26:12;5.97;62.84
67249;SHT31;63247;54.300;18.592;2023-02-28T13:28:59;6.18;62.54
67249;SHT31;63247;54.300;18.592;2023-02-28T13:31:25;5.95;62.43
67249;SHT31;63247;54.300;18.592;2023-02-28T13:38:55;5.65;64.54
67249;SHT31;63247;54.300;18.592;2023-02-28T13:44:16;5.68;64.48
67249;SHT31;63247;54.300;18.592;2023-02-28T13:51:49;5.23;65.88
67249;SHT31;63247;54.300;18.592;2023-02-28T13:57:29;5.20;65.85
67249;SHT31;63247;54.300;18.592;2023-02-28T14:05:36;5.06;65.85
67249;SHT31;63247;54.300;18.592;2023-02-28T14:08:19;4.97;66.12
67249;SHT31;63247;54.300;18.592;2023-02-28T14:10:48;4.91;66.53
67249;SHT31;63247;54.300;18.592;2023-02-28T14:13:41;4.94;67.10
67249;SHT31;63247;54.300;18.592;2023-02-28T14:16:14;4.90;67.80
67249;SHT31;63247;54.300;18.592;2023-02-28T14:18:58;4.93;67.20
67249;SHT31;63247;54.300;18.592;2023-02-28T14:21:29;4.96;67.10
67249;SHT31;63247;54.300;18.592;2023-02-28T14:26:57;4.87;67.03
67249;SHT31;63247;54.300;18.592;2023-02-28T14:29:47;5.00;67.79
67249;SHT31;63247;54.300;18.592;2023-02-28T14:35:09;4.83;68.07
67249;SHT31;63247;54.300;18.592;2023-02-28T14:37:39;4.76;67.94
67249;SHT31;63247;54.300;18.592;2023-02-28T14:40:17;4.73;68.23
67249;SHT31;63247;54.300;18.592;2023-02-28T14:42:55;4.72;68.05
67249;SHT31;63247;54.300;18.592;2023-02-28T14:45:21;4.59;67.97
67249;SHT31;63247;54.300;18.592;2023-02-28T14:47:49;4.59;67.72
67249;SHT31;63247;54.300;18.592;2023-02-28T14:50:23;4.56;68.54
67249;SHT31;63247;54.300;18.592;2023-02-28T14:52:53;4.55;68.46
67249;SHT31;63247;54.300;18.592;2023-02-28T14:55:24;4.65;68.45
67249;SHT31;63247;54.300;18.592;2023-02-28T14:58:02;4.58;68.73
67249;SHT31;63247;54.300;18.592;2023-02-28T15:00:48;4.51;69.07
67249;SHT31;63247;54.300;18.592;2023-02-28T15:05:58;4.38;69.56
67249;SHT31;63247;54.300;18.592;2023-02-28T15:08:24;4.46;69.51
67249;SHT31;63247;54.300;18.592;2023-02-28T15:13:38;4.22;70.37
67249;SHT31;63247;54.300;18.592;2023-02-28T15:16:09;4.07;70.48
67249;SHT31;63247;54.300;18.592;2023-02-28T15:21:12;3.94;71.55
67249;SHT31;63247;54.300;18.592;2023-02-28T15:23:40;3.93;71.82
67249;SHT31;63247;54.300;18.592;2023-02-28T15:26:13;3.89;72.29
67249;SHT31;63247;54.300;18.592;2023-02-28T15:28:41;3.83;72.19
67249;SHT31;63247;54.300;18.592;2023-02-28T15:31:20;3.66;72.82
67249;SHT31;63247;54.300;18.592;2023-02-28T15:33:57;3.76;72.73
67249;SHT31;63247;54.300;18.592;2023-02-28T15:36:28;3.76;72.60
67249;SHT31;63247;54.300;18.592;2023-02-28T15:38:54;3.60;73.05
67249;SHT31;63247;54.300;18.592;2023-02-28T15:41:28;3.45;73.23
67249;SHT31;63247;54.300;18.592;2023-02-28T15:47:05;3.26;74.37
67249;SHT31;63247;54.300;18.592;2023-02-28T15:49:39;3.18;74.28
67249;SHT31;63247;54.300;18.592;2023-02-28T15:52:05;3.11;75.02
67249;SHT31;63247;54.300;18.592;2023-02-28T15:54:33;2.95;75.20
67249;SHT31;63247;54.300;18.592;2023-02-28T15:57:07;2.85;75.62
67249;SHT31;63247;54.300;18.592;2023-02-28T15:59:38;2.94;75.26
67249;SHT31;63247;54.300;18.592;2023-02-28T16:04:36;2.73;75.84
67249;SHT31;63247;54.300;18.592;2023-02-28T16:07:04;2.63;76.22
67249;SHT31;63247;54.300;18.592;2023-02-28T16:09:30;2.50;76.88
67249;SHT31;63247;54.300;18.592;2023-02-28T16:11:59;2.30;77.60
67249;SHT31;63247;54.300;18.592;2023-02-28T16:14:27;2.37;77.62
67249;SHT31;63247;54.300;18.592;2023-02-28T16:17:05;2.24;78.08
67249;SHT31;63247;54.300;18.592;2023-02-28T16:19:31;2.07;78.35
67249;SHT31;63247;54.300;18.592;2023-02-28T16:21:57;1.97;78.73
67249;SHT31;63247;54.300;18.592;2023-02-28T16:24:23;1.94;79.00
67249;SHT31;63247;54.300;18.592;2023-02-28T16:26:49;1.71;79.71
67249;SHT31;63247;54.300;18.592;2023-02-28T16:29:28;1.61;80.02
67249;SHT31;63247;54.300;18.592;2023-02-28T16:31:54;1.60;80.35
67249;SHT31;63247;54.300;18.592;2023-02-28T16:34:20;1.54;80.67
67249;SHT31;63247;54.300;18.592;2023-02-28T16:36:47;1.40;81.00
67249;SHT31;63247;54.300;18.592;2023-02-28T16:39:13;1.35;81.23
67249;SHT31;63247;54.300;18.592;2023-02-28T16:41:43;1.36;81.21
67249;SHT31;63247;54.300;18.592;2023-02-28T16:44:17;1.35;81.39
67249;SHT31;63247;54.300;18.592;2023-02-28T16:46:46;1.44;81.42
67249;SHT31;63247;54.300;18.592;2023-02-28T16:49:11;1.32;81.23
67249;SHT31;63247;54.300;18.592;2023-02-28T16:51:37;1.26;81.72
67249;SHT31;63247;54.300;18.592;2023-02-28T16:54:03;1.20;82.16
67249;SHT31;63247;54.300;18.592;2023-02-28T16:56:28;1.16;82.11
67249;SHT31;63247;54.300;18.592;2023-02-28T16:58:57;1.25;82.12
67249;SHT31;63247;54.300;18.592;2023-02-28T17:01:24;1.15;82.20
67249;SHT31;63247;54.300;18.592;2023-02-28T17:03:52;1.15;82.20
67249;SHT31;63247;54.300;18.592;2023-02-28T17:06:24;1.06;82.43
67249;SHT31;63247;54.300;18.592;2023-02-28T17:08:50;1.09;82.36
67249;SHT31;63247;54.300;18.592;2023-02-28T17:11:17;1.09;82.36
67249;SHT31;63247;54.300;18.592;2023-02-28T17:13:43;1.06;82.42
67249;SHT31;63247;54.300;18.592;2023-02-28T17:16:17;1.02;82.45
67249;SHT31;63247;54.300;18.592;2023-02-28T17:18:43;0.99;82.85
67249;SHT31;63247;54.300;18.592;2023-02-28T17:21:18;0.96;82.72
67249;SHT31;63247;54.300;18.592;2023-02-28T17:23:43;0.91;82.98
67249;SHT31;63247;54.300;18.592;2023-02-28T17:26:13;0.85;83.28
67249;SHT31;63247;54.300;18.592;2023-02-28T17:28:39;0.87;83.39
67249;SHT31;63247;54.300;18.592;2023-02-28T17:31:04;0.68;83.88
67249;SHT31;63247;54.300;18.592;2023-02-28T17:33:30;0.56;84.03
67249;SHT31;63247;54.300;18.592;2023-02-28T17:35:55;0.62;83.83
67249;SHT31;63247;54.300;18.592;2023-02-28T17:38:21;0.58;83.80
67249;SHT31;63247;54.300;18.592;2023-02-28T17:40:48;0.53;84.25
67249;SHT31;63247;54.300;18.592;2023-02-28T17:43:13;0.61;83.66
67249;SHT31;63247;54.300;18.592;2023-02-28T17:45:40;0.70;83.05
67249;SHT31;63247;54.300;18.592;2023-02-28T17:48:06;0.61;83.37
67249;SHT31;63247;54.300;18.592;2023-02-28T17:50:31;0.58;83.18